createdAt,value
2022-12-18T00:00:42.535Z,19.84
2022-12-18T00:01:34.804Z,18.75
2022-12-18T00:02:23.053Z,19.21
2022-12-18T00:03:09.677Z,19.23
2022-12-18T00:03:57.175Z,19.07
2022-12-18T00:04:43.946Z,18.89
2022-12-18T00:05:30.416Z,19.81
2022-12-18T00:06:17.756Z,19.87
2022-12-18T00:07:04.426Z,19.49
2022-12-18T00:07:51.087Z,19.74
2022-12-18T00:08:37.501Z,18.49
2022-12-18T00:09:24.799Z,18.17
2022-12-18T00:10:11.444Z,18.97
2022-12-18T00:11:11.943Z,19.05
2022-12-18T00:11:59.457Z,18.16
2022-12-18T00:12:46.047Z,18.49
2022-12-18T00:13:32.780Z,18.73
2022-12-18T00:14:19.326Z,18.91
2022-12-18T00:15:06.398Z,18.52
2022-12-18T00:15:53.135Z,18.44
2022-12-18T00:16:47.486Z,18.14
2022-12-18T00:17:34.121Z,19.61
2022-12-18T00:18:20.894Z,19.11
2022-12-18T00:19:08.387Z,18.69
2022-12-18T00:19:54.856Z,18.69
2022-12-18T00:20:41.371Z,18.18
2022-12-18T00:21:32.839Z,18.45
2022-12-18T00:22:19.451Z,18.04
2022-12-18T00:23:07.521Z,18.56
2022-12-18T00:23:54.153Z,18.74
2022-12-18T00:24:40.865Z,19.56
2022-12-18T00:25:27.525Z,18.86
2022-12-18T00:26:17.976Z,18.34
2022-12-18T00:27:04.612Z,19.27
2022-12-18T00:27:51.377Z,18.70
2022-12-18T00:28:38.277Z,18.11
2022-12-18T00:29:24.811Z,18.47
2022-12-18T00:30:12.046Z,19.23
2022-12-18T00:31:07.277Z,19.16
2022-12-18T00:31:53.941Z,19.65
2022-12-18T00:32:40.658Z,18.96
2022-12-18T00:33:27.359Z,19.90
2022-12-18T00:34:14.530Z,19.63
2022-12-18T00:35:01.057Z,18.74
2022-12-18T00:35:47.819Z,18.03
2022-12-18T00:36:36.216Z,18.48
2022-12-18T00:37:22.966Z,18.30
2022-12-18T00:38:11.212Z,18.70
2022-12-18T00:38:59.675Z,19.11
2022-12-18T00:39:46.138Z,18.48
2022-12-18T00:40:32.816Z,18.45
2022-12-18T00:41:42.080Z,18.53
2022-12-18T00:42:47.283Z,17.73
2022-12-18T00:43:33.978Z,17.55
2022-12-18T00:44:20.849Z,17.15
2022-12-18T00:45:12.326Z,18.04
2022-12-18T00:45:59.811Z,18.63
2022-12-18T00:46:49.055Z,17.92
2022-12-18T00:47:35.587Z,16.72
2022-12-18T00:48:23.177Z,17.57
2022-12-18T00:49:10.348Z,18.12
2022-12-18T00:49:57.077Z,17.86
2022-12-18T00:50:43.587Z,18.80
2022-12-18T00:51:30.653Z,18.22
2022-12-18T00:52:17.156Z,17.82
2022-12-18T00:53:03.735Z,17.91
2022-12-18T00:53:50.430Z,18.51
2022-12-18T00:54:37.045Z,18.82
2022-12-18T00:55:23.652Z,17.47
2022-12-18T00:56:10.577Z,18.19
2022-12-18T00:56:57.372Z,18.49
2022-12-18T00:57:44.245Z,17.78
2022-12-18T00:58:32.151Z,17.32
2022-12-18T00:59:24.832Z,18.29
2022-12-18T01:00:15.030Z,17.55
2022-12-18T01:01:02.195Z,18.40
2022-12-18T01:01:48.994Z,17.71
2022-12-18T01:02:35.901Z,17.35
2022-12-18T01:03:22.848Z,17.99
2022-12-18T01:04:09.849Z,17.76
2022-12-18T01:04:57.569Z,17.82
2022-12-18T01:05:44.375Z,18.39
2022-12-18T01:06:32.015Z,18.08
2022-12-18T01:07:18.544Z,17.92
2022-12-18T01:08:05.511Z,17.83
2022-12-18T01:08:52.035Z,17.10
2022-12-18T01:09:38.827Z,17.50
2022-12-18T01:10:26.669Z,18.68
2022-12-18T01:11:18.751Z,18.10
2022-12-18T01:12:05.705Z,17.94
2022-12-18T01:12:52.776Z,17.36
2022-12-18T01:13:41.061Z,17.81
2022-12-18T01:14:27.906Z,18.60
2022-12-18T01:15:15.857Z,18.53
2022-12-18T01:16:03.354Z,17.70
2022-12-18T01:16:50.155Z,17.74
2022-12-18T01:17:36.704Z,18.59
2022-12-18T01:18:23.240Z,17.80
2022-12-18T01:19:11.092Z,17.65
2022-12-18T01:19:57.797Z,17.83
2022-12-18T01:20:44.373Z,17.12
2022-12-18T01:21:30.855Z,17.54
2022-12-18T01:22:17.408Z,17.83
2022-12-18T01:23:07.309Z,17.06
2022-12-18T01:23:56.673Z,16.89
2022-12-18T01:24:43.705Z,17.86
2022-12-18T01:25:30.368Z,18.46
2022-12-18T01:26:17.235Z,18.26
2022-12-18T01:27:04.338Z,18.78
2022-12-18T01:27:50.850Z,18.21
2022-12-18T01:28:38.957Z,18.54
2022-12-18T01:29:27.637Z,17.74
2022-12-18T01:30:14.667Z,17.79
2022-12-18T01:31:19.595Z,17.30
2022-12-18T01:32:07.325Z,17.74
2022-12-18T01:32:54.274Z,17.88
2022-12-18T01:33:41.570Z,16.87
2022-12-18T01:34:28.346Z,17.80
2022-12-18T01:35:14.935Z,18.23
2022-12-18T01:36:01.571Z,17.98
2022-12-18T01:36:48.040Z,18.92
2022-12-18T01:37:34.490Z,18.76
2022-12-18T01:38:20.998Z,17.80
2022-12-18T01:39:11.921Z,17.45
2022-12-18T01:40:01.664Z,18.34
2022-12-18T01:40:48.384Z,18.31
2022-12-18T01:41:55.568Z,16.63
2022-12-18T01:42:42.058Z,18.22
2022-12-18T01:43:53.449Z,17.66
2022-12-18T01:44:52.702Z,18.30
2022-12-18T01:45:39.585Z,17.97
2022-12-18T01:46:28.139Z,16.84
2022-12-18T01:47:21.692Z,17.02
2022-12-18T01:48:09.985Z,18.66
2022-12-18T01:49:02.748Z,18.46
2022-12-18T01:49:49.491Z,18.33
2022-12-18T01:50:42.692Z,17.59
2022-12-18T01:51:31.949Z,17.98
2022-12-18T01:52:21.389Z,18.25
2022-12-18T01:53:11.074Z,18.21
2022-12-18T01:53:59.947Z,18.69
2022-12-18T01:54:49.633Z,18.66
2022-12-18T01:55:52.783Z,18.55
2022-12-18T01:56:39.273Z,18.88
2022-12-18T01:57:27.307Z,18.57
2022-12-18T01:58:14.506Z,18.67
2022-12-18T01:59:10.409Z,18.47
2022-12-18T02:00:03.923Z,17.65
2022-12-18T02:01:07.098Z,18.64
2022-12-18T02:01:54.001Z,18.34
2022-12-18T02:02:43.821Z,18.03
2022-12-18T02:03:30.483Z,17.76
2022-12-18T02:04:25.626Z,17.33
2022-12-18T02:05:17.734Z,17.84
2022-12-18T02:06:11.889Z,17.43
2022-12-18T02:07:21.165Z,18.90
2022-12-18T02:08:22.230Z,17.94
2022-12-18T02:09:18.038Z,18.55
2022-12-18T02:10:25.263Z,17.47
2022-12-18T02:11:23.372Z,17.52
2022-12-18T02:12:31.738Z,17.59
2022-12-18T02:13:51.772Z,17.72
2022-12-18T02:14:56.282Z,17.97
2022-12-18T02:15:51.905Z,17.56
2022-12-18T02:16:55.449Z,17.43
2022-12-18T02:17:55.286Z,17.96
2022-12-18T02:18:49.643Z,17.66
2022-12-18T02:19:48.413Z,17.60
2022-12-18T02:20:41.340Z,18.34
2022-12-18T02:21:36.792Z,18.19
2022-12-18T02:22:54.056Z,17.05
2022-12-18T02:24:05.684Z,18.21
2022-12-18T02:25:06.917Z,17.80
2022-12-18T02:26:08.008Z,17.83
2022-12-18T02:27:00.870Z,18.69
2022-12-18T02:27:53.066Z,17.17
2022-12-18T02:29:16.763Z,17.03
2022-12-18T02:30:06.675Z,17.59
2022-12-18T02:31:00.691Z,16.95
2022-12-18T02:31:58.393Z,18.22
2022-12-18T02:32:52.082Z,17.79
2022-12-18T02:33:42.903Z,18.10
2022-12-18T02:34:35.860Z,18.09
2022-12-18T02:35:28.457Z,17.60
2022-12-18T02:36:21.637Z,17.88
2022-12-18T02:37:14.905Z,18.28
2022-12-18T02:38:05.174Z,18.15
2022-12-18T02:38:57.885Z,17.74
2022-12-18T02:39:48.839Z,17.40
2022-12-18T02:40:37.971Z,17.71
2022-12-18T02:41:25.889Z,17.47
2022-12-18T02:42:13.587Z,17.12
2022-12-18T02:43:18.723Z,17.19
2022-12-18T02:44:13.420Z,17.58
2022-12-18T02:45:00.493Z,17.85
2022-12-18T02:45:58.784Z,17.02
2022-12-18T02:46:52.403Z,17.60
2022-12-18T02:47:44.941Z,17.36
2022-12-18T02:48:36.011Z,18.15
2022-12-18T02:49:31.328Z,18.17
2022-12-18T02:50:34.855Z,17.77
2022-12-18T02:51:37.495Z,18.06
2022-12-18T02:52:37.289Z,17.45
2022-12-18T02:53:38.391Z,19.42
2022-12-18T02:54:39.188Z,18.36
2022-12-18T02:55:35.308Z,18.19
2022-12-18T02:56:38.455Z,18.38
2022-12-18T02:57:40.024Z,18.51
2022-12-18T02:58:50.296Z,18.50
2022-12-18T03:00:15.603Z,18.42
2022-12-18T03:01:28.415Z,17.53
2022-12-18T03:02:45.276Z,18.25
2022-12-18T03:03:50.034Z,19.10
2022-12-18T03:04:53.232Z,18.29
2022-12-18T03:05:53.508Z,17.12
2022-12-18T03:06:48.187Z,17.97
2022-12-18T03:07:51.588Z,18.70
2022-12-18T03:08:45.388Z,18.21
2022-12-18T03:09:44.489Z,18.14
2022-12-18T03:10:36.499Z,18.49
2022-12-18T03:11:43.625Z,18.26
2022-12-18T03:12:39.546Z,18.39
2022-12-18T03:13:34.373Z,16.46
2022-12-18T03:14:24.355Z,17.25
2022-12-18T03:16:00.753Z,18.01
2022-12-18T03:16:54.350Z,17.92
2022-12-18T03:17:49.845Z,17.50
2022-12-18T03:18:54.816Z,16.75
2022-12-18T03:19:48.780Z,17.76
2022-12-18T03:20:38.068Z,17.70
2022-12-18T03:21:34.800Z,17.18
2022-12-18T03:22:25.756Z,18.04
2022-12-18T03:23:22.337Z,17.68
2022-12-18T03:24:12.720Z,18.25
2022-12-18T03:25:05.565Z,17.80
2022-12-18T03:26:00.805Z,17.20
2022-12-18T03:26:55.836Z,17.47
2022-12-18T03:27:49.987Z,17.99
2022-12-18T03:28:44.915Z,16.84
2022-12-18T03:29:36.840Z,18.51
2022-12-18T03:30:29.850Z,17.62
2022-12-18T03:31:18.986Z,16.76
2022-12-18T03:32:16.634Z,18.57
2022-12-18T03:33:25.036Z,17.96
2022-12-18T03:34:24.525Z,18.23
2022-12-18T03:35:17.838Z,18.57
2022-12-18T03:36:05.340Z,16.51
2022-12-18T03:36:53.018Z,18.06
2022-12-18T03:37:40.607Z,16.86
2022-12-18T03:38:28.052Z,17.55
2022-12-18T03:39:14.870Z,17.71
2022-12-18T03:40:07.417Z,17.81
2022-12-18T03:41:13.623Z,18.30
2022-12-18T03:42:41.325Z,16.97
2022-12-18T03:43:38.692Z,17.87
2022-12-18T03:44:40.811Z,17.09
2022-12-18T03:45:36.709Z,16.69
2022-12-18T03:46:39.875Z,18.09
2022-12-18T03:47:40.563Z,18.45
2022-12-18T03:48:45.219Z,17.58
2022-12-18T03:50:12.475Z,17.62
2022-12-18T03:51:15.769Z,17.95
2022-12-18T03:52:19.224Z,17.32
2022-12-18T03:53:27.054Z,17.03
2022-12-18T03:54:15.736Z,17.02
2022-12-18T03:55:12.836Z,17.24
2022-12-18T03:56:04.944Z,17.15
2022-12-18T03:57:04.775Z,17.05
2022-12-18T03:57:54.210Z,16.55
2022-12-18T03:58:44.291Z,16.63
2022-12-18T03:59:40.163Z,16.46
2022-12-18T04:00:31.561Z,17.48
2022-12-18T04:01:33.841Z,17.49
2022-12-18T04:02:24.593Z,17.56
2022-12-18T04:03:14.612Z,17.39
2022-12-18T04:04:10.803Z,16.78
2022-12-18T04:05:03.537Z,17.14
2022-12-18T04:05:55.012Z,17.04
2022-12-18T04:06:44.669Z,16.92
2022-12-18T04:07:34.008Z,16.48
2022-12-18T04:08:22.845Z,16.33
2022-12-18T04:09:20.463Z,16.73
2022-12-18T04:10:10.135Z,17.45
2022-12-18T04:10:58.708Z,16.76
2022-12-18T04:11:47.622Z,16.29
2022-12-18T04:12:35.753Z,17.34
2022-12-18T04:13:24.349Z,17.57
2022-12-18T04:14:17.587Z,17.66
2022-12-18T04:15:06.721Z,17.40
2022-12-18T04:15:53.779Z,17.66
2022-12-18T04:16:43.182Z,17.35
2022-12-18T04:17:33.126Z,17.82
2022-12-18T04:18:19.657Z,16.94
2022-12-18T04:19:07.000Z,16.06
2022-12-18T04:19:59.014Z,16.85
2022-12-18T04:20:45.687Z,18.27
2022-12-18T04:21:32.175Z,17.86
2022-12-18T04:22:18.771Z,17.17
2022-12-18T04:23:08.618Z,17.16
2022-12-18T04:23:55.407Z,17.62
2022-12-18T04:24:43.110Z,17.50
2022-12-18T04:25:36.962Z,17.08
2022-12-18T04:26:30.844Z,17.64
2022-12-18T04:27:31.862Z,17.29
2022-12-18T04:28:19.681Z,18.20
2022-12-18T04:29:06.584Z,17.24
2022-12-18T04:29:53.434Z,16.82
2022-12-18T04:30:39.958Z,16.92
2022-12-18T04:31:27.425Z,16.67
2022-12-18T04:32:14.082Z,17.48
2022-12-18T04:33:03.226Z,17.48
2022-12-18T04:33:51.149Z,17.43
2022-12-18T04:34:37.805Z,16.66
2022-12-18T04:35:25.397Z,16.58
2022-12-18T04:36:13.343Z,17.29
2022-12-18T04:37:00.591Z,17.62
2022-12-18T04:37:47.420Z,17.92
2022-12-18T04:38:34.040Z,17.96
2022-12-18T04:39:26.617Z,18.34
2022-12-18T04:40:17.260Z,18.57
2022-12-18T04:41:06.691Z,18.22
2022-12-18T04:41:53.902Z,18.81
2022-12-18T04:42:41.294Z,18.48
2022-12-18T04:43:28.106Z,18.41
2022-12-18T04:44:14.752Z,18.28
2022-12-18T04:45:01.574Z,18.05
2022-12-18T04:45:48.007Z,18.02
2022-12-18T04:46:34.616Z,18.20
2022-12-18T04:47:21.289Z,18.65
2022-12-18T04:48:07.821Z,17.26
2022-12-18T04:48:54.470Z,17.66
2022-12-18T04:49:40.955Z,18.60
2022-12-18T04:50:28.659Z,17.77
2022-12-18T04:51:15.355Z,17.10
2022-12-18T04:52:01.955Z,17.08
2022-12-18T04:52:48.563Z,17.75
2022-12-18T04:53:35.181Z,17.24
2022-12-18T04:54:21.628Z,16.93
2022-12-18T04:55:08.711Z,16.71
2022-12-18T04:56:13.039Z,17.07
2022-12-18T04:56:59.533Z,17.07
2022-12-18T04:57:46.760Z,16.76
2022-12-18T04:58:33.282Z,16.98
2022-12-18T04:59:19.741Z,16.82
2022-12-18T05:00:06.956Z,16.65
2022-12-18T05:00:54.567Z,17.71
2022-12-18T05:01:41.329Z,16.97
2022-12-18T05:02:28.167Z,16.24
2022-12-18T05:03:14.653Z,16.21
2022-12-18T05:04:02.120Z,16.24
2022-12-18T05:04:48.750Z,16.66
2022-12-18T05:05:36.064Z,16.58
2022-12-18T05:06:22.501Z,15.22
2022-12-18T05:07:09.191Z,16.41
2022-12-18T05:07:55.892Z,15.88
2022-12-18T05:08:42.389Z,16.57
2022-12-18T05:09:28.878Z,16.74
2022-12-18T05:10:15.377Z,16.65
2022-12-18T05:11:04.735Z,15.88
2022-12-18T05:11:52.044Z,15.22
2022-12-18T05:12:58.580Z,15.82
2022-12-18T05:13:46.634Z,15.87
2022-12-18T05:14:33.268Z,16.21
2022-12-18T05:15:19.903Z,16.66
2022-12-18T05:16:07.329Z,15.77
2022-12-18T05:16:57.964Z,15.03
2022-12-18T05:17:47.510Z,16.08
2022-12-18T05:18:35.160Z,16.08
2022-12-18T05:19:21.710Z,16.52
2022-12-18T05:20:08.782Z,15.96
2022-12-18T05:20:55.839Z,15.09
2022-12-18T05:21:42.270Z,15.16
2022-12-18T05:22:29.191Z,15.23
2022-12-18T05:23:15.592Z,15.67
2022-12-18T05:24:02.042Z,15.35
2022-12-18T05:24:48.486Z,15.39
2022-12-18T05:25:34.939Z,15.15
2022-12-18T05:26:21.577Z,15.19
2022-12-18T05:27:08.085Z,15.15
2022-12-18T05:27:55.149Z,15.61
2022-12-18T05:28:41.644Z,15.38
2022-12-18T05:29:28.378Z,15.80
2022-12-18T05:30:16.455Z,16.01
2022-12-18T05:31:05.434Z,15.11
2022-12-18T05:31:52.209Z,14.91
2022-12-18T05:32:39.219Z,15.42
2022-12-18T05:33:27.784Z,15.14
2022-12-18T05:34:14.216Z,15.80
2022-12-18T05:35:01.124Z,14.58
2022-12-18T05:35:55.859Z,14.67
2022-12-18T05:36:42.680Z,14.79
2022-12-18T05:37:29.445Z,15.01
2022-12-18T05:38:16.093Z,15.41
2022-12-18T05:39:02.829Z,14.95
2022-12-18T05:39:49.291Z,15.41
2022-12-18T05:40:35.989Z,14.32
2022-12-18T05:41:22.763Z,15.22
2022-12-18T05:42:09.267Z,15.96
2022-12-18T05:42:55.688Z,15.49
2022-12-18T05:43:42.928Z,15.05
2022-12-18T05:44:29.589Z,14.57
2022-12-18T05:45:16.234Z,15.29
2022-12-18T05:46:08.284Z,15.78
2022-12-18T05:46:55.063Z,14.68
2022-12-18T05:47:41.756Z,14.06
2022-12-18T05:48:28.347Z,14.75
2022-12-18T05:49:14.831Z,15.26
2022-12-18T05:50:01.575Z,15.03
2022-12-18T05:50:49.978Z,13.81
2022-12-18T05:51:36.663Z,14.98
2022-12-18T05:52:23.663Z,14.44
2022-12-18T05:53:10.433Z,16.08
2022-12-18T05:53:56.916Z,15.54
2022-12-18T05:54:43.480Z,14.50
2022-12-18T05:55:30.266Z,15.09
2022-12-18T05:56:20.731Z,14.25
2022-12-18T05:57:07.352Z,15.47
2022-12-18T05:57:53.955Z,15.10
2022-12-18T05:58:40.636Z,14.59
2022-12-18T05:59:27.454Z,14.54
2022-12-18T06:00:14.516Z,15.68
2022-12-18T06:01:19.409Z,15.06
2022-12-18T06:02:06.144Z,14.52
2022-12-18T06:02:52.915Z,15.23
2022-12-18T06:03:40.125Z,15.08
2022-12-18T06:04:29.490Z,15.14
2022-12-18T06:05:16.463Z,14.97
2022-12-18T06:06:03.225Z,15.01
2022-12-18T06:06:49.834Z,15.49
2022-12-18T06:07:36.260Z,15.67
2022-12-18T06:08:22.747Z,15.79
2022-12-18T06:09:10.463Z,15.38
2022-12-18T06:09:56.972Z,15.48
2022-12-18T06:10:43.420Z,15.61
2022-12-18T06:11:30.036Z,16.40
2022-12-18T06:12:16.588Z,16.13
2022-12-18T06:13:04.223Z,15.29
2022-12-18T06:13:57.878Z,16.63
2022-12-18T06:14:44.765Z,16.78
2022-12-18T06:15:31.422Z,16.13
2022-12-18T06:16:18.209Z,16.79
2022-12-18T06:17:04.786Z,16.22
2022-12-18T06:17:51.389Z,16.57
2022-12-18T06:18:37.875Z,16.50
2022-12-18T06:19:24.660Z,16.58
2022-12-18T06:20:11.113Z,16.37
2022-12-18T06:20:58.493Z,16.96
2022-12-18T06:21:45.168Z,17.09
2022-12-18T06:22:33.074Z,17.05
2022-12-18T06:23:19.736Z,17.14
2022-12-18T06:24:06.855Z,17.34
2022-12-18T06:24:53.491Z,16.76
2022-12-18T06:25:40.387Z,17.19
2022-12-18T06:26:28.566Z,17.57
2022-12-18T06:27:15.828Z,17.15
2022-12-18T06:28:02.443Z,17.65
2022-12-18T06:28:49.083Z,17.26
2022-12-18T06:29:35.672Z,16.93
2022-12-18T06:30:22.171Z,16.75
2022-12-18T06:31:10.262Z,16.73
2022-12-18T06:31:56.923Z,16.82
2022-12-18T06:32:43.624Z,16.25
2022-12-18T06:33:31.144Z,15.76
2022-12-18T06:34:17.734Z,15.59
2022-12-18T06:35:04.861Z,15.68
2022-12-18T06:35:52.776Z,16.08
2022-12-18T06:36:40.804Z,16.21
2022-12-18T06:37:27.307Z,16.17
2022-12-18T06:38:13.910Z,16.34
2022-12-18T06:39:00.615Z,16.68
2022-12-18T06:39:47.105Z,16.31
2022-12-18T06:40:34.023Z,15.65
2022-12-18T06:41:22.844Z,15.42
2022-12-18T06:42:09.359Z,15.22
2022-12-18T06:42:56.035Z,15.67
2022-12-18T06:43:43.148Z,16.56
2022-12-18T06:44:29.859Z,16.79
2022-12-18T06:45:16.803Z,16.82
2022-12-18T06:46:05.318Z,16.32
2022-12-18T06:46:51.924Z,16.05
2022-12-18T06:47:38.520Z,16.58
2022-12-18T06:48:24.985Z,16.78
2022-12-18T06:49:11.567Z,18.19
2022-12-18T06:49:58.181Z,17.14
2022-12-18T06:50:44.632Z,16.85
2022-12-18T06:51:31.092Z,17.30
2022-12-18T06:52:17.612Z,16.33
2022-12-18T06:53:04.071Z,16.90
2022-12-18T06:53:50.845Z,17.14
2022-12-18T06:54:37.505Z,16.57
2022-12-18T06:55:24.111Z,16.86
2022-12-18T06:56:11.215Z,15.59
2022-12-18T06:56:58.414Z,15.05
2022-12-18T06:57:44.883Z,15.72
2022-12-18T06:58:33.306Z,15.65
2022-12-18T06:59:19.920Z,15.10
2022-12-18T07:00:08.010Z,15.72
2022-12-18T07:01:02.432Z,15.43
2022-12-18T07:01:49.122Z,16.24
2022-12-18T07:02:35.826Z,16.42
2022-12-18T07:03:22.357Z,16.32
2022-12-18T07:04:08.784Z,16.19
2022-12-18T07:04:55.492Z,16.26
2022-12-18T07:05:42.162Z,16.27
2022-12-18T07:06:28.576Z,17.96
2022-12-18T07:07:15.221Z,16.86
2022-12-18T07:08:02.248Z,15.85
2022-12-18T07:08:49.910Z,16.49
2022-12-18T07:09:36.507Z,16.85
2022-12-18T07:10:23.025Z,16.51
2022-12-18T07:11:10.082Z,16.61
2022-12-18T07:11:56.678Z,16.56
2022-12-18T07:12:44.541Z,16.51
2022-12-18T07:13:31.121Z,17.16
2022-12-18T07:14:17.653Z,16.59
2022-12-18T07:15:05.007Z,16.48
2022-12-18T07:15:51.800Z,16.54
2022-12-18T07:16:38.402Z,16.85
2022-12-18T07:17:25.158Z,17.46
2022-12-18T07:18:11.894Z,17.53
2022-12-18T07:18:58.339Z,17.04
2022-12-18T07:19:45.207Z,17.64
2022-12-18T07:20:31.774Z,17.63
2022-12-18T07:21:20.332Z,16.72
2022-12-18T07:22:06.855Z,17.73
2022-12-18T07:22:56.372Z,17.32
2022-12-18T07:23:43.331Z,16.70
2022-12-18T07:24:29.913Z,17.27
2022-12-18T07:25:16.639Z,17.07
2022-12-18T07:26:09.748Z,17.31
2022-12-18T07:26:56.310Z,17.97
2022-12-18T07:27:42.952Z,17.24
2022-12-18T07:28:29.462Z,17.37
2022-12-18T07:29:16.099Z,17.26
2022-12-18T07:30:02.626Z,17.11
2022-12-18T07:30:49.449Z,17.23
2022-12-18T07:31:36.140Z,16.90
2022-12-18T07:32:22.696Z,17.36
2022-12-18T07:33:11.584Z,17.05
2022-12-18T07:33:58.201Z,16.86
2022-12-18T07:34:46.459Z,17.31
2022-12-18T07:35:34.899Z,17.41
2022-12-18T07:36:21.341Z,17.88
2022-12-18T07:37:09.074Z,18.03
2022-12-18T07:37:57.310Z,18.39
2022-12-18T07:38:44.095Z,18.10
2022-12-18T07:39:30.611Z,17.34
2022-12-18T07:40:17.181Z,19.22
2022-12-18T07:41:07.245Z,18.42
2022-12-18T07:42:12.416Z,17.78
2022-12-18T07:43:00.203Z,18.95
2022-12-18T07:43:47.509Z,18.60
2022-12-18T07:44:35.766Z,18.89
2022-12-18T07:45:22.406Z,18.63
2022-12-18T07:46:12.326Z,18.90
2022-12-18T07:47:00.093Z,18.61
2022-12-18T07:47:46.498Z,17.91
2022-12-18T07:48:34.443Z,18.54
2022-12-18T07:49:21.077Z,18.52
2022-12-18T07:50:08.285Z,18.52
2022-12-18T07:50:54.801Z,17.95
2022-12-18T07:51:41.300Z,17.54
2022-12-18T07:52:27.866Z,19.24
2022-12-18T07:53:15.333Z,19.08
2022-12-18T07:54:01.790Z,18.83
2022-12-18T07:54:50.819Z,18.44
2022-12-18T07:55:54.937Z,18.86
2022-12-18T07:56:44.030Z,18.24
2022-12-18T07:58:38.784Z,18.75
2022-12-18T07:59:25.378Z,19.32
2022-12-18T08:00:13.187Z,19.72
2022-12-18T08:01:19.898Z,19.27
2022-12-18T08:02:08.429Z,19.51
2022-12-18T08:02:55.504Z,19.34
2022-12-18T08:03:42.898Z,19.17
2022-12-18T08:04:29.894Z,19.03
2022-12-18T08:05:16.607Z,18.93
2022-12-18T08:06:05.820Z,19.23
2022-12-18T08:06:52.859Z,19.49
2022-12-18T08:07:59.422Z,20.18
2022-12-18T08:08:46.175Z,19.56
2022-12-18T08:09:32.598Z,19.36
2022-12-18T08:10:20.636Z,19.79
2022-12-18T08:11:07.232Z,19.79
2022-12-18T08:11:53.735Z,18.80
2022-12-18T08:12:42.968Z,19.72
2022-12-18T08:13:29.731Z,20.90
2022-12-18T08:14:16.184Z,20.16
2022-12-18T08:15:03.113Z,19.78
2022-12-18T08:16:04.792Z,19.52
2022-12-18T08:16:51.390Z,19.76
2022-12-18T08:17:38.119Z,19.88
2022-12-18T08:18:24.708Z,19.30
2022-12-18T08:19:11.198Z,19.27
2022-12-18T08:19:57.656Z,19.29
2022-12-18T08:20:45.484Z,18.93
2022-12-18T08:21:32.546Z,20.08
2022-12-18T08:22:19.333Z,20.16
2022-12-18T08:23:05.877Z,20.89
2022-12-18T08:23:54.362Z,21.01
2022-12-18T08:24:40.955Z,19.71
2022-12-18T08:25:27.618Z,20.13
2022-12-18T08:26:15.281Z,20.40
2022-12-18T08:28:10.609Z,20.42
2022-12-18T08:28:58.773Z,20.75
2022-12-18T08:29:45.613Z,20.57
2022-12-18T08:30:32.331Z,20.27
2022-12-18T08:31:20.081Z,20.06
2022-12-18T08:32:08.073Z,20.11
2022-12-18T08:32:54.963Z,20.33
2022-12-18T08:33:42.430Z,21.42
2022-12-18T08:34:29.884Z,20.21
2022-12-18T08:35:18.878Z,21.07
2022-12-18T08:36:07.051Z,20.12
2022-12-18T08:36:58.345Z,19.03
2022-12-18T08:37:44.812Z,19.32
2022-12-18T08:38:32.845Z,19.34
2022-12-18T08:39:19.444Z,20.02
2022-12-18T08:40:06.747Z,19.14
2022-12-18T08:41:05.897Z,19.83
2022-12-18T08:42:11.013Z,19.87
2022-12-18T08:43:15.959Z,19.88
2022-12-18T08:44:21.102Z,19.61
2022-12-18T08:45:08.263Z,19.28
2022-12-18T08:45:54.965Z,20.21
2022-12-18T08:46:44.430Z,20.36
2022-12-18T08:47:31.030Z,19.48
2022-12-18T08:48:22.047Z,20.24
2022-12-18T08:49:11.118Z,20.38
2022-12-18T08:49:57.708Z,20.71
2022-12-18T08:50:44.308Z,20.47
2022-12-18T08:51:31.072Z,19.74
2022-12-18T08:52:17.707Z,19.67
2022-12-18T08:53:04.225Z,20.11
2022-12-18T08:53:50.702Z,19.39
2022-12-18T08:54:37.159Z,19.24
2022-12-18T08:55:24.002Z,20.25
2022-12-18T08:56:10.670Z,19.75
2022-12-18T08:56:57.261Z,19.43
2022-12-18T08:57:43.885Z,19.75
2022-12-18T08:58:31.174Z,19.63
2022-12-18T08:59:20.051Z,19.78
2022-12-18T09:00:07.422Z,20.08
2022-12-18T09:00:54.228Z,20.52
2022-12-18T09:01:40.791Z,20.47
2022-12-18T09:02:27.840Z,19.40
2022-12-18T09:03:16.045Z,19.57
2022-12-18T09:04:02.989Z,18.86
2022-12-18T09:04:55.425Z,19.63
2022-12-18T09:05:48.438Z,20.40
2022-12-18T09:06:35.230Z,19.72
2022-12-18T09:07:22.693Z,19.44
2022-12-18T09:08:09.885Z,19.67
2022-12-18T09:08:57.910Z,19.11
2022-12-18T09:09:44.454Z,19.17
2022-12-18T09:10:31.121Z,19.68
2022-12-18T09:11:24.503Z,19.84
2022-12-18T09:12:11.175Z,19.72
2022-12-18T09:12:57.676Z,19.67
2022-12-18T09:13:44.342Z,18.24
2022-12-18T09:14:31.128Z,19.47
2022-12-18T09:15:17.768Z,18.63
2022-12-18T09:16:04.744Z,19.01
2022-12-18T09:16:51.765Z,20.14
2022-12-18T09:17:38.312Z,19.42
2022-12-18T09:18:26.010Z,19.67
2022-12-18T09:19:12.731Z,19.20
2022-12-18T09:19:59.218Z,18.90
2022-12-18T09:20:46.403Z,18.76
2022-12-18T09:21:43.379Z,18.91
2022-12-18T09:22:32.899Z,18.95
2022-12-18T09:23:19.858Z,19.25
2022-12-18T09:24:08.813Z,18.08
2022-12-18T09:24:55.879Z,18.41
2022-12-18T09:25:42.671Z,19.37
2022-12-18T09:26:30.196Z,19.82
2022-12-18T09:27:16.671Z,19.70
2022-12-18T09:28:07.085Z,19.52
2022-12-18T09:28:54.658Z,19.07
2022-12-18T09:29:41.412Z,18.79
2022-12-18T09:30:27.842Z,18.87
2022-12-18T09:31:15.021Z,18.80
2022-12-18T09:32:01.523Z,18.24
2022-12-18T09:32:48.070Z,18.84
2022-12-18T09:33:36.806Z,18.99
2022-12-18T09:34:23.269Z,19.22
2022-12-18T09:35:09.689Z,18.80
2022-12-18T09:35:56.231Z,19.02
2022-12-18T09:36:43.084Z,18.71
2022-12-18T09:37:30.372Z,18.97
2022-12-18T09:38:21.078Z,18.76
2022-12-18T09:39:08.865Z,17.74
2022-12-18T09:39:55.764Z,18.38
2022-12-18T09:40:54.737Z,18.39
2022-12-18T09:41:46.913Z,17.73
2022-12-18T09:42:33.600Z,17.76
2022-12-18T09:43:42.168Z,18.61
2022-12-18T09:44:45.477Z,18.10
2022-12-18T09:45:43.560Z,17.95
2022-12-18T09:46:44.222Z,17.88
2022-12-18T09:47:38.107Z,18.19
2022-12-18T09:48:38.124Z,17.87
2022-12-18T09:49:30.189Z,17.81
2022-12-18T09:50:37.956Z,18.84
2022-12-18T09:51:31.587Z,18.07
2022-12-18T09:52:40.730Z,17.44
2022-12-18T09:53:35.616Z,17.83
2022-12-18T09:54:39.141Z,17.63
2022-12-18T09:55:37.587Z,18.12
2022-12-18T09:56:29.468Z,17.43
2022-12-18T09:57:23.710Z,17.27
2022-12-18T09:58:45.405Z,17.18
2022-12-18T09:59:37.994Z,16.82
2022-12-18T10:00:26.518Z,16.56
2022-12-18T10:01:19.415Z,16.70
2022-12-18T10:02:18.398Z,17.01
2022-12-18T10:03:12.689Z,15.72
2022-12-18T10:04:00.758Z,15.91
2022-12-18T10:05:06.524Z,15.36
2022-12-18T10:06:13.694Z,16.38
2022-12-18T10:07:35.042Z,15.55
2022-12-18T10:08:50.514Z,16.73
2022-12-18T10:09:46.407Z,15.88
2022-12-18T10:10:42.591Z,16.24
2022-12-18T10:11:56.396Z,16.44
2022-12-18T10:13:00.958Z,15.77
2022-12-18T10:14:07.285Z,16.00
2022-12-18T10:15:11.908Z,16.10
2022-12-18T10:16:10.652Z,15.73
2022-12-18T10:17:15.759Z,15.85
2022-12-18T10:18:25.971Z,16.55
2022-12-18T10:19:36.743Z,15.17
2022-12-18T10:20:50.125Z,15.93
2022-12-18T10:21:42.576Z,15.49
2022-12-18T10:22:48.751Z,16.09
2022-12-18T10:23:52.022Z,15.92
2022-12-18T10:24:54.863Z,15.94
2022-12-18T10:26:13.609Z,16.48
2022-12-18T10:27:16.569Z,16.36
2022-12-18T10:28:15.183Z,15.03
2022-12-18T10:29:05.655Z,15.83
2022-12-18T10:29:52.999Z,16.32
2022-12-18T10:30:42.048Z,15.69
2022-12-18T10:31:29.067Z,15.19
2022-12-18T10:32:30.372Z,15.51
2022-12-18T10:33:19.505Z,16.35
2022-12-18T10:34:11.048Z,15.76
2022-12-18T10:35:00.859Z,15.17
2022-12-18T10:35:51.031Z,14.76
2022-12-18T10:36:38.901Z,15.46
2022-12-18T10:37:28.572Z,15.71
2022-12-18T10:38:18.035Z,15.71
2022-12-18T10:39:19.910Z,15.75
2022-12-18T10:40:10.100Z,16.26
2022-12-18T10:41:18.186Z,16.55
2022-12-18T10:42:19.559Z,16.23
2022-12-18T10:43:13.439Z,15.85
2022-12-18T10:44:18.691Z,16.00
2022-12-18T10:45:12.553Z,16.68
2022-12-18T10:46:06.446Z,16.41
2022-12-18T10:47:10.143Z,16.20
2022-12-18T10:47:59.125Z,17.25
2022-12-18T10:48:48.402Z,16.32
2022-12-18T10:49:36.988Z,16.34
2022-12-18T10:51:09.111Z,16.12
2022-12-18T10:51:44.238Z,16.89
2022-12-18T10:52:31.232Z,16.61
2022-12-18T10:53:25.220Z,17.19
2022-12-18T10:54:24.845Z,16.79
2022-12-18T10:55:18.830Z,17.33
2022-12-18T10:56:07.409Z,17.94
2022-12-18T10:57:17.758Z,16.94
2022-12-18T10:58:32.398Z,16.98